Terminal Aerodrome Forecast
Issued by NWS

Home | Current Version | Previous Version | Text Only | Print | Product List | Glossary On
Versions: 1 2 3 4 5 6 7 8 9 10 11 12 13 14 15 16 17
000
FTUS43 KJKL 301000 AAA
TAFSME
TAF AMD
KSME 301024Z 3010/3106 VRB03KT 5SM BR BKN002
     FM301100 00000KT 2SM BR OVC002
      TEMPO 3011/3013 1/2SM FG OVC002
     FM301300 30005KT P6SM SCT060=

USA.gov is the U.S. government's official web portal to all federal, state and local government web resources and services.